METAR Data
IDs: Format: Raw Decoded Include TAF

Data at: 2038 UTC 31 Jan 2023

KDRT 311953Z AUTO 32012G19KT 10SM OVC020 03/M03 A3027 RMK AO2 SLP258 T00331028